Time;durP1;ratioP1;P1;durP2;ratioP2;P2;SDS_P1;SDS_P2;PMS_P1;PMS_P2;Temp;Humidity;BMP_temperature;BMP_pressure;BME280_temperature;BME280_humidity;BME280_pressure;Samples;Min_cycle;Max_cycle;Signal;HPM_P1;HPM_P2
2022/02/24 00:07:01;;;;;;;74.60;29.40;;;;;;;-0.14;73.21;99373.41;433403;1270;108836;-41
2022/02/24 00:17:09;;;;;;;84.10;33.20;;;;;;;-0.16;74.04;99373.17;432295;1270;95711;-42
2022/02/24 00:27:16;;;;;;;94.60;35.30;;;;;;;-0.13;74.21;99374.86;433413;1271;110244;-40
2022/02/24 00:37:24;;;;;;;85.40;36.00;;;;;;;-0.25;74.04;99384.12;433379;1270;108818;-40
2022/02/24 00:47:31;;;;;;;81.50;34.60;;;;;;;-0.41;74.22;99372.41;433394;1269;108946;-40
2022/02/24 00:57:38;;;;;;;77.60;36.70;;;;;;;-0.47;74.41;99373.52;433493;1269;95316;-40
2022/02/24 01:07:46;;;;;;;80.20;32.80;;;;;;;-0.56;74.61;99359.45;433354;1269;110646;-41
2022/02/24 01:17:53;;;;;;;88.90;36.80;;;;;;;-0.65;74.96;99362.50;433422;1269;108883;-40
2022/02/24 01:28:02;;;;;;;104.70;43.20;;;;;;;-0.77;75.21;99358.23;433467;1270;108728;-41
2022/02/24 01:38:10;;;;;;;105.70;44.30;;;;;;;-0.91;75.19;99345.67;433458;1270;95380;-41
2022/02/24 01:48:17;;;;;;;77.70;32.60;;;;;;;-1.01;75.37;99337.09;433331;1270;96159;-39
2022/02/24 01:58:23;;;;;;;72.50;32.40;;;;;;;-1.07;75.85;99321.31;433505;1270;109651;-41
2022/02/24 02:08:30;;;;;;;58.00;26.80;;;;;;;-1.03;75.97;99318.52;433279;1271;108699;-40
2022/02/24 02:18:39;;;;;;;81.70;37.90;;;;;;;-1.09;76.33;99305.56;433505;1269;96245;-41
2022/02/24 02:28:47;;;;;;;92.30;39.90;;;;;;;-1.21;76.60;99298.21;433292;1270;109711;-41
2022/02/24 02:38:54;;;;;;;72.40;32.60;;;;;;;-1.35;77.05;99288.23;433366;1269;108865;-40
2022/02/24 02:49:01;;;;;;;67.80;31.20;;;;;;;-1.46;77.34;99272.75;433270;1270;107767;-41
2022/02/24 02:59:08;;;;;;;53.80;28.90;;;;;;;-1.45;77.56;99272.86;433441;1269;95444;-40
2022/02/24 03:09:15;;;;;;;75.40;31.40;;;;;;;-1.45;77.69;99275.33;433224;1271;109805;-40
2022/02/24 03:19:23;;;;;;;69.30;33.60;;;;;;;-1.51;77.73;99268.59;433271;1271;109132;-41
2022/02/24 03:29:30;;;;;;;98.60;41.20;;;;;;;-1.61;78.13;99263.44;430022;1268;5552848;-40
2022/02/24 03:39:37;;;;;;;79.10;35.30;;;;;;;-1.77;78.43;99258.52;434098;1267;109729;-40
2022/02/24 03:49:45;;;;;;;73.00;36.90;;;;;;;-1.82;78.71;99258.92;433880;1268;107770;-39
2022/02/24 03:59:52;;;;;;;78.10;36.70;;;;;;;-1.82;78.63;99255.16;434118;1267;95939;-40
2022/02/24 04:10:00;;;;;;;70.20;35.50;;;;;;;-1.78;78.72;99244.77;434125;1266;109694;-39
2022/02/24 04:20:09;;;;;;;100.50;46.50;;;;;;;-1.84;78.67;99235.02;434051;1267;108754;-42
2022/02/24 04:30:14;;;;;;;98.20;44.30;;;;;;;-2.03;79.11;99228.64;434177;1268;96214;-40
2022/02/24 04:40:21;;;;;;;81.10;38.90;;;;;;;-2.18;79.19;99230.58;434116;1268;96180;-43
2022/02/24 04:50:28;;;;;;;79.80;41.00;;;;;;;-2.20;79.42;99225.91;433923;1268;109724;-39
2022/02/24 05:00:36;;;;;;;85.30;41.30;;;;;;;-2.20;79.55;99223.02;434108;1268;108537;-39
2022/02/24 05:10:43;;;;;;;87.00;40.60;;;;;;;-2.18;79.46;99218.36;433302;1268;95616;-39
2022/02/24 05:20:50;;;;;;;85.30;41.60;;;;;;;-2.19;79.58;99210.54;433942;1266;108782;-40
2022/02/24 05:51:13;;;;;;;107.20;53.10;;;;;;;-2.36;79.90;99213.92;434120;1267;109519;-45
2022/02/24 06:01:20;;;;;;;140.30;62.70;;;;;;;-2.24;80.19;99205.60;433517;1268;108926;-43
2022/02/24 06:11:27;;;;;;;110.80;50.30;;;;;;;-2.04;80.45;99198.97;433974;1266;95542;-39
2022/02/24 06:21:34;;;;;;;111.60;50.00;;;;;;;-1.82;80.66;99187.35;434129;1267;95264;-39
2022/02/24 06:31:41;;;;;;;145.80;63.10;;;;;;;-1.58;80.81;99179.81;433940;1268;109500;-43
2022/02/24 06:41:48;;;;;;;99.30;49.00;;;;;;;-0.76;81.15;99167.56;434072;1266;108916;-40
2022/02/24 06:51:57;;;;;;;89.80;44.80;;;;;;;-0.04;80.34;99151.59;433914;1267;109084;-39
2022/02/24 07:02:04;;;;;;;109.50;46.00;;;;;;;0.10;80.16;99136.59;434108;1266;96228;-40
2022/02/24 07:12:12;;;;;;;110.30;47.60;;;;;;;0.31;80.40;99131.55;433780;1268;108715;-40
2022/02/24 07:22:19;;;;;;;71.60;35.30;;;;;;;0.87;79.97;99121.66;434079;1267;108861;-41
2022/02/24 07:32:27;;;;;;;84.80;37.10;;;;;;;1.72;79.48;99107.46;434067;1266;108957;-40
2022/02/24 08:02:51;;;;;;;59.40;29.70;;;;;;;4.27;75.88;99057.27;433991;1268;108113;-41
2022/02/24 08:13:00;;;;;;;79.90;33.40;;;;;;;5.06;73.70;99040.20;434110;1266;96221;-42
2022/02/24 08:23:10;;;;;;;65.80;31.50;;;;;;;5.38;71.58;99027.84;434068;1266;98000;-40
2022/02/24 08:33:18;;;;;;;70.50;31.40;;;;;;;5.36;70.17;99017.27;434070;1267;111119;-41
2022/02/24 08:43:25;;;;;;;54.80;24.20;;;;;;;5.48;70.05;99011.96;434103;1266;108857;-40
2022/02/24 08:53:32;;;;;;;44.40;19.80;;;;;;;5.80;68.66;98989.80;433929;1268;108886;-41
2022/02/24 09:03:39;;;;;;;30.30;13.80;;;;;;;6.33;66.93;98964.98;433930;1268;97496;-42
2022/02/24 09:13:48;;;;;;;28.90;14.20;;;;;;;6.79;65.40;98943.59;434109;1267;111062;-42
2022/02/24 09:23:55;;;;;;;32.30;15.30;;;;;;;7.17;63.77;98913.75;434037;1268;109303;-43
2022/02/24 09:34:03;;;;;;;26.80;11.60;;;;;;;7.39;62.08;98896.12;433453;1268;109020;-43
2022/02/24 09:44:10;;;;;;;23.00;8.40;;;;;;;7.66;60.82;98893.40;433941;1266;97910;-41
2022/02/24 09:54:17;;;;;;;21.30;8.80;;;;;;;7.77;57.72;98882.52;433920;1266;111256;-42
2022/02/24 10:04:25;;;;;;;17.70;7.60;;;;;;;7.91;57.14;98862.25;433895;1266;108610;-43
2022/02/24 10:24:42;;;;;;;17.70;8.10;;;;;;;8.07;54.10;98829.15;434043;1268;97852;-43
2022/02/24 10:34:50;;;;;;;22.50;9.10;;;;;;;8.29;54.17;98813.63;433999;1268;98495;-41
2022/02/24 10:45:05;;;;;;;19.70;7.70;;;;;;;8.42;52.42;98805.17;434105;1268;111200;-41
2022/02/24 10:55:14;;;;;;;19.40;10.10;;;;;;;8.56;51.17;98788.52;434076;1268;108874;-44
2022/02/24 11:05:21;;;;;;;22.90;8.80;;;;;;;8.74;51.27;98771.85;433998;1266;108560;-42
2022/02/24 11:15:28;;;;;;;18.70;8.60;;;;;;;9.06;52.73;98753.29;434119;1268;97484;-42
2022/02/24 11:25:52;;;;;;;18.90;9.10;;;;;;;9.34;51.70;98732.60;434192;1268;97602;-42
2022/02/24 11:36:10;;;;;;;18.40;8.30;;;;;;;9.53;47.62;98706.41;434024;1268;111301;-43
2022/02/24 11:46:17;;;;;;;16.40;7.40;;;;;;;9.68;47.59;98687.71;434106;1268;107787;-41
2022/02/24 12:06:49;;;;;;;18.40;9.20;;;;;;;10.00;47.13;98643.13;434091;1267;111086;-41
2022/02/24 12:17:05;;;;;;;14.20;7.20;;;;;;;10.04;46.58;98626.53;434098;1266;108057;-40
2022/02/24 12:27:33;;;;;;;20.70;7.40;;;;;;;10.02;46.19;98618.46;434039;1268;96660;-44
2022/02/24 12:37:46;;;;;;;17.80;7.90;;;;;;;9.97;44.75;98599.73;434158;1266;111206;-43
2022/02/24 12:47:56;;;;;;;13.20;6.20;;;;;;;9.91;44.12;98573.54;433864;1268;108813;-42
2022/02/24 12:58:03;;;;;;;17.90;7.60;;;;;;;9.58;45.72;98562.67;434184;1268;97537;-43
2022/02/24 13:18:36;;;;;;;20.70;8.70;;;;;;;9.76;46.51;98523.37;433577;1267;108712;-41
2022/02/24 13:28:45;;;;;;;18.70;8.40;;;;;;;9.85;45.64;98495.39;433803;1267;97999;-42
2022/02/24 13:38:52;;;;;;;17.30;8.60;;;;;;;10.01;45.08;98453.69;433828;1267;108928;-41
2022/02/24 13:49:07;;;;;;;16.60;7.40;;;;;;;10.28;44.74;98421.44;433756;1267;97474;-41
2022/02/24 13:59:23;;;;;;;12.80;5.10;;;;;;;10.37;44.89;98409.10;433817;1268;111095;-43
2022/02/24 14:09:30;;;;;;;13.00;5.80;;;;;;;10.21;45.18;98408.35;433869;1268;108755;-44
2022/02/24 14:19:40;;;;;;;14.40;6.30;;;;;;;10.02;46.04;98388.08;433812;1268;97945;-42
2022/02/24 14:39:55;;;;;;;13.30;6.10;;;;;;;9.99;45.89;98359.38;434106;1268;108778;-44
2022/02/24 14:50:07;;;;;;;12.60;5.70;;;;;;;9.87;46.14;98342.95;433705;1267;97801;-40
2022/02/24 15:00:19;;;;;;;11.00;4.90;;;;;;;9.71;46.60;98329.45;434088;1266;111194;-41
2022/02/24 15:10:24;;;;;;;17.00;6.70;;;;;;;9.66;47.03;98325.68;433995;1267;108876;-41
2022/02/24 15:20:33;;;;;;;12.30;7.00;;;;;;;9.59;46.86;98319.05;433547;1268;97905;-41
2022/02/24 15:30:40;;;;;;;13.20;6.10;;;;;;;9.36;47.59;98301.65;431553;1268;3161840;-43
2022/02/24 15:40:48;;;;;;;16.70;7.10;;;;;;;9.17;47.94;98307.28;433922;1268;108795;-41
2022/02/24 15:50:55;;;;;;;16.90;7.60;;;;;;;8.98;48.31;98307.67;433998;1268;97900;-44
2022/02/24 16:01:03;;;;;;;17.20;9.30;;;;;;;8.76;49.28;98307.65;434093;1268;111113;-41
2022/02/24 16:11:11;;;;;;;20.50;9.70;;;;;;;8.48;49.98;98302.20;433847;1266;108869;-44
2022/02/24 16:31:24;;;;;;;32.80;14.50;;;;;;;7.95;51.19;98271.17;434103;1268;96597;-43
2022/02/24 16:41:42;;;;;;;39.70;17.20;;;;;;;7.68;51.72;98267.69;433988;1268;110941;-41
2022/02/24 16:51:49;;;;;;;43.00;20.40;;;;;;;7.44;52.47;98279.31;434131;1268;108848;-42
2022/02/24 17:01:56;;;;;;;48.00;19.20;;;;;;;7.32;52.86;98278.16;433927;1268;108808;-41
2022/02/24 17:12:05;;;;;;;22.50;10.00;;;;;;;7.29;52.92;98269.48;434014;1268;96666;-40
2022/02/24 17:22:13;;;;;;;15.10;7.20;;;;;;;7.31;53.11;98258.23;433985;1268;111031;-42
2022/02/24 17:32:21;;;;;;;24.00;8.30;;;;;;;7.34;53.18;98245.51;434083;1268;108228;-42
2022/02/24 17:42:28;;;;;;;24.90;10.30;;;;;;;7.26;53.53;98236.92;434218;1268;108762;-41
2022/02/24 17:52:35;;;;;;;29.40;11.60;;;;;;;7.16;53.72;98226.91;434080;1268;98534;-42
2022/02/24 18:02:43;;;;;;;29.20;11.60;;;;;;;7.08;53.87;98231.67;433990;1268;111377;-43
2022/02/24 18:12:51;;;;;;;22.10;9.00;;;;;;;7.02;54.33;98231.89;434036;1267;108903;-45
2022/02/24 18:33:05;;;;;;;22.20;9.70;;;;;;;6.98;54.45;98235.98;433995;1268;96733;-42
2022/02/24 18:43:12;;;;;;;21.80;9.30;;;;;;;6.91;54.61;98233.82;433883;1268;97449;-42
2022/02/24 18:53:20;;;;;;;33.40;12.80;;;;;;;6.83;54.75;98224.45;434087;1267;110967;-42
2022/02/24 19:03:27;;;;;;;31.50;13.10;;;;;;;6.74;55.13;98220.13;434007;1268;108795;-41
2022/02/24 19:13:54;;;;;;;30.40;13.70;;;;;;;6.64;55.32;98212.89;434030;1268;108440;-41
2022/02/24 19:24:02;;;;;;;27.90;13.00;;;;;;;6.57;55.60;98203.92;433845;1268;96603;-40
2022/02/24 19:34:11;;;;;;;30.40;14.00;;;;;;;6.47;55.84;98190.55;434086;1267;111140;-42
2022/02/24 19:54:24;;;;;;;21.20;11.30;;;;;;;6.49;56.50;98178.95;434215;1268;108910;-43
2022/02/24 20:04:31;;;;;;;25.00;8.40;;;;;;;6.57;56.69;98177.09;433936;1268;97880;-43
2022/02/24 20:14:38;;;;;;;19.00;8.60;;;;;;;6.60;56.71;98168.98;434004;1267;110069;-42
2022/02/24 20:24:46;;;;;;;22.90;9.80;;;;;;;6.56;56.83;98163.89;433868;1268;108845;-41
2022/02/24 20:34:53;;;;;;;24.10;9.30;;;;;;;6.46;56.98;98160.39;434004;1267;109156;-41
2022/02/24 20:45:02;;;;;;;25.10;10.50;;;;;;;6.41;57.19;98156.59;434005;1267;97983;-44
2022/02/24 20:55:09;;;;;;;20.80;8.30;;;;;;;6.32;57.31;98149.89;434096;1268;98175;-42
2022/02/24 21:05:17;;;;;;;17.90;8.60;;;;;;;6.27;57.54;98139.80;434094;1266;111167;-41
2022/02/24 21:15:24;;;;;;;24.30;10.90;;;;;;;6.20;57.68;98135.75;434110;1267;108943;-43
2022/02/24 21:25:30;;;;;;;28.30;11.10;;;;;;;6.13;58.05;98137.31;433879;1268;109346;-43
2022/02/24 21:35:38;;;;;;;27.00;10.80;;;;;;;6.05;58.01;98141.98;434008;1267;98783;-41
2022/02/24 21:45:46;;;;;;;25.90;10.40;;;;;;;6.00;58.22;98134.34;434066;1268;109963;-45
2022/02/24 22:06:00;;;;;;;22.10;10.00;;;;;;;5.94;58.42;98121.20;434060;1268;108761;-44
2022/02/24 22:16:08;;;;;;;23.60;10.00;;;;;;;5.90;58.50;98125.30;434018;1268;98000;-41
2022/02/24 22:26:15;;;;;;;26.30;9.60;;;;;;;5.89;58.58;98115.85;434127;1267;111243;-42
2022/02/24 22:36:23;;;;;;;28.90;11.80;;;;;;;5.90;58.59;98095.80;434117;1267;108770;-40
2022/02/24 22:46:30;;;;;;;38.40;16.90;;;;;;;5.90;58.44;98087.29;434116;1266;108877;-41
2022/02/24 22:56:37;;;;;;;33.70;15.50;;;;;;;5.84;58.56;98078.87;434092;1268;97939;-41
2022/02/24 23:06:45;;;;;;;38.00;15.00;;;;;;;5.78;58.60;98078.30;433928;1267;111034;-42
2022/02/24 23:16:52;;;;;;;31.80;14.90;;;;;;;5.71;58.75;98073.28;434169;1267;108713;-41
2022/02/24 23:27:00;;;;;;;36.90;16.20;;;;;;;5.68;58.83;98069.09;434126;1268;109182;-43
2022/02/24 23:37:08;;;;;;;45.50;17.60;;;;;;;5.69;58.94;98065.17;434084;1267;96700;-41
2022/02/24 23:47:15;;;;;;;48.00;17.80;;;;;;;5.68;58.76;98075.02;434030;1268;111148;-43
2022/02/24 23:57:23;;;;;;;32.80;15.10;;;;;;;5.67;58.76;98076.08;434026;1267;108614;-45
